Time;durP1;ratioP1;P1;durP2;ratioP2;P2;SDS_P1;SDS_P2;PMS_P1;PMS_P2;Temp;Humidity;BMP_temperature;BMP_pressure;BME280_temperature;BME280_humidity;BME280_pressure;Samples;Min_cycle;Max_cycle;Signal;HPM_P1;HPM_P2
2024/03/11 00:02:02;;;;;;;0.00;0.00;;;;;;;;;;5146494;27;20034;-66
2024/03/11 00:04:28;;;;;;;0.00;0.00;;;;;;;;;;5156683;27;20018;-66
2024/03/11 00:06:54;;;;;;;0.00;0.00;;;;;;;;;;5156666;27;20038;-66
2024/03/11 00:09:28;;;;;;;0.00;0.00;;;;;;;;;;5147118;27;20022;-66
2024/03/11 00:11:59;;;;;;;0.10;0.10;;;;;;;;;;5156664;27;20054;-66
2024/03/11 00:14:26;;;;;;;0.00;0.00;;;;;;;;;;5142304;27;20019;-66
2024/03/11 00:16:55;;;;;;;0.00;0.00;;;;;;;;;;5156200;27;20018;-66
2024/03/11 00:19:22;;;;;;;0.00;0.00;;;;;;;;;;5150659;27;20075;-66
2024/03/11 00:21:52;;;;;;;0.00;0.00;;;;;;;;;;5154583;27;20372;-66
2024/03/11 00:24:18;;;;;;;0.00;0.00;;;;;;;;;;5156190;27;20503;-66
2024/03/11 00:26:45;;;;;;;0.00;0.00;;;;;;;;;;5154927;27;20018;-66
2024/03/11 00:29:11;;;;;;;0.00;0.00;;;;;;;;;;5151514;27;20091;-66
2024/03/11 00:31:38;;;;;;;0.00;0.00;;;;;;;;;;5156054;27;20026;-66
2024/03/11 00:34:04;;;;;;;0.00;0.00;;;;;;;;;;5156409;27;20023;-66
2024/03/11 00:36:31;;;;;;;0.00;0.00;;;;;;;;;;5137441;27;20472;-66
2024/03/11 00:39:03;;;;;;;0.00;0.00;;;;;;;;;;5153701;27;20026;-66
2024/03/11 00:41:31;;;;;;;0.00;0.00;;;;;;;;;;5155350;27;20495;-67
2024/03/11 00:43:57;;;;;;;0.00;0.00;;;;;;;;;;5154904;27;20148;-66
2024/03/11 00:46:23;;;;;;;0.00;0.00;;;;;;;;;;5154249;27;20117;-67
2024/03/11 00:48:49;;;;;;;0.00;0.00;;;;;;;;;;5140589;27;20376;-66
2024/03/11 00:51:15;;;;;;;0.00;0.00;;;;;;;;;;5147246;27;20027;-66
2024/03/11 00:53:41;;;;;;;0.00;0.00;;;;;;;;;;5130711;27;20066;-66
2024/03/11 00:56:08;;;;;;;0.00;0.00;;;;;;;;;;5122244;27;20037;-66
2024/03/11 00:58:34;;;;;;;0.00;0.00;;;;;;;;;;5155645;27;20023;-66
2024/03/11 01:01:01;;;;;;;0.00;0.00;;;;;;;;;;5136541;27;20536;-67
2024/03/11 01:03:30;;;;;;;0.00;0.00;;;;;;;;;;5155651;27;20026;-67
2024/03/11 01:05:59;;;;;;;0.00;0.00;;;;;;;;;;5136658;27;20033;-67
2024/03/11 01:08:26;;;;;;;0.00;0.00;;;;;;;;;;5155663;27;20443;-66
2024/03/11 01:10:52;;;;;;;0.10;0.10;;;;;;;;;;5155517;27;20421;-67
2024/03/11 01:13:19;;;;;;;0.00;0.00;;;;;;;;;;5155321;27;20055;-66
2024/03/11 01:15:46;;;;;;;0.00;0.00;;;;;;;;;;5155392;27;20030;-66
2024/03/11 01:18:14;;;;;;;0.00;0.00;;;;;;;;;;5155096;27;20023;-66
2024/03/11 01:20:40;;;;;;;0.08;0.08;;;;;;;;;;5155122;27;20015;-67
2024/03/11 01:23:06;;;;;;;0.00;0.00;;;;;;;;;;5140547;27;20033;-67
2024/03/11 01:25:33;;;;;;;0.00;0.00;;;;;;;;;;5155219;27;20023;-67
2024/03/11 01:27:59;;;;;;;0.00;0.00;;;;;;;;;;5154926;27;20044;-67
2024/03/11 01:30:25;;;;;;;0.00;0.00;;;;;;;;;;5155145;27;20057;-67
2024/03/11 01:32:52;;;;;;;0.00;0.00;;;;;;;;;;5153737;27;20023;-67
2024/03/11 01:35:18;;;;;;;0.00;0.00;;;;;;;;;;5149484;27;20050;-67
2024/03/11 01:37:44;;;;;;;0.00;0.00;;;;;;;;;;5154317;27;20042;-67
2024/03/11 01:40:12;;;;;;;0.00;0.00;;;;;;;;;;5140018;27;20410;-67
2024/03/11 01:42:42;;;;;;;0.00;0.00;;;;;;;;;;5144708;27;20022;-67
2024/03/11 01:45:12;;;;;;;0.00;0.00;;;;;;;;;;5153562;27;20468;-67
2024/03/11 01:47:38;;;;;;;0.03;0.03;;;;;;;;;;5148739;27;20049;-67
2024/03/11 01:50:07;;;;;;;0.00;0.00;;;;;;;;;;5142604;27;20030;-67
2024/03/11 01:52:43;;;;;;;0.00;0.00;;;;;;;;;;5154250;27;20087;-67
2024/03/11 01:55:10;;;;;;;0.00;0.00;;;;;;;;;;5136000;27;20027;-67
2024/03/11 01:57:36;;;;;;;0.00;0.00;;;;;;;;;;5134257;27;20118;-66
2024/03/11 02:00:08;;;;;;;0.00;0.00;;;;;;;;;;5153623;27;20034;-66
2024/03/11 02:02:34;;;;;;;0.00;0.00;;;;;;;;;;5150780;27;20027;-66
2024/03/11 02:05:02;;;;;;;0.00;0.00;;;;;;;;;;5147018;27;20027;-67
2024/03/11 02:10:34;;;;;;;0.00;0.00;;;;;;;;;;5152098;27;20126;-66
2024/03/11 02:13:03;;;;;;;0.00;0.00;;;;;;;;;;5146079;27;20022;-66
2024/03/11 02:15:30;;;;;;;0.00;0.00;;;;;;;;;;5148455;27;20046;-68
2024/03/11 02:17:56;;;;;;;0.00;0.00;;;;;;;;;;5144900;27;20096;-67
2024/03/11 02:20:22;;;;;;;0.00;0.00;;;;;;;;;;5146350;27;20083;-67
2024/03/11 02:22:49;;;;;;;0.00;0.00;;;;;;;;;;5133956;27;20083;-67
2024/03/11 02:25:15;;;;;;;0.00;0.00;;;;;;;;;;5151013;27;20023;-67
2024/03/11 02:27:42;;;;;;;0.00;0.00;;;;;;;;;;5133972;27;20031;-67
2024/03/11 02:30:21;;;;;;;0.00;0.00;;;;;;;;;;5152967;27;20037;-67
2024/03/11 02:38:54;;;;;;;0.00;0.00;;;;;;;;;;5149176;27;20034;-67
2024/03/11 02:41:20;;;;;;;0.00;0.00;;;;;;;;;;5153221;27;20388;-67
2024/03/11 02:43:46;;;;;;;0.00;0.00;;;;;;;;;;5149655;27;20031;-67
2024/03/11 02:46:12;;;;;;;0.00;0.00;;;;;;;;;;5145402;27;20557;-67
2024/03/11 02:48:38;;;;;;;0.00;0.00;;;;;;;;;;5150272;27;20030;-67
2024/03/11 02:51:05;;;;;;;0.00;0.00;;;;;;;;;;5150682;27;20485;-67
2024/03/11 02:53:31;;;;;;;0.00;0.00;;;;;;;;;;5133170;27;20023;-67
2024/03/11 02:56:02;;;;;;;0.00;0.00;;;;;;;;;;5148968;27;20014;-67
2024/03/11 02:58:28;;;;;;;0.00;0.00;;;;;;;;;;5121238;27;20131;-67
2024/03/11 03:00:56;;;;;;;0.38;0.38;;;;;;;;;;5134637;27;20459;-67
2024/03/11 03:03:22;;;;;;;0.00;0.00;;;;;;;;;;5140206;27;20078;-67
2024/03/11 03:05:49;;;;;;;0.00;0.00;;;;;;;;;;5148901;27;20023;-67
2024/03/11 03:08:15;;;;;;;0.00;0.00;;;;;;;;;;5133548;27;20036;-68
2024/03/11 03:10:41;;;;;;;0.00;0.00;;;;;;;;;;5154535;27;20019;-68
2024/03/11 03:13:07;;;;;;;0.00;0.00;;;;;;;;;;5157629;27;20027;-68
2024/03/11 03:15:33;;;;;;;0.00;0.00;;;;;;;;;;5137396;27;20454;-68
2024/03/11 03:17:59;;;;;;;0.00;0.00;;;;;;;;;;5138106;27;20030;-68
2024/03/11 03:20:26;;;;;;;0.05;0.05;;;;;;;;;;5139179;27;20012;-68
2024/03/11 03:22:52;;;;;;;0.00;0.00;;;;;;;;;;5123463;27;20076;-67
2024/03/11 03:25:18;;;;;;;0.00;0.00;;;;;;;;;;5151347;27;20023;-67
2024/03/11 03:27:46;;;;;;;0.00;0.00;;;;;;;;;;5138849;27;20038;-67
2024/03/11 03:30:15;;;;;;;0.00;0.00;;;;;;;;;;5150247;27;20033;-67
2024/03/11 03:32:42;;;;;;;0.05;0.05;;;;;;;;;;5154591;27;20035;-67
2024/03/11 03:35:09;;;;;;;0.00;0.00;;;;;;;;;;5142803;27;20467;-67
2024/03/11 03:37:35;;;;;;;0.00;0.00;;;;;;;;;;5153726;27;20428;-67
2024/03/11 03:40:03;;;;;;;0.00;0.00;;;;;;;;;;5150290;27;20400;-67
2024/03/11 03:42:29;;;;;;;0.00;0.00;;;;;;;;;;5156155;27;20023;-67
2024/03/11 03:44:55;;;;;;;0.00;0.00;;;;;;;;;;5137901;27;20027;-67
2024/03/11 03:47:22;;;;;;;0.00;0.00;;;;;;;;;;5154581;27;20027;-67
2024/03/11 03:49:48;;;;;;;0.00;0.00;;;;;;;;;;5146245;27;20022;-67
2024/03/11 03:52:14;;;;;;;0.00;0.00;;;;;;;;;;5153118;27;20384;-67
2024/03/11 03:54:39;;;;;;;0.35;0.35;;;;;;;;;;5152641;27;20023;-67
2024/03/11 03:57:06;;;;;;;0.00;0.00;;;;;;;;;;5149764;27;20113;-67
2024/03/11 03:59:33;;;;;;;0.00;0.00;;;;;;;;;;5131977;27;20373;-67
2024/03/11 04:01:59;;;;;;;0.00;0.00;;;;;;;;;;5149072;27;20027;-67
2024/03/11 04:04:40;;;;;;;0.00;0.00;;;;;;;;;;5148303;27;20109;-66
2024/03/11 04:07:06;;;;;;;0.10;0.10;;;;;;;;;;5148909;27;20114;-67
2024/03/11 04:09:32;;;;;;;0.00;0.00;;;;;;;;;;5155021;27;20023;-67
2024/03/11 04:11:58;;;;;;;0.00;0.00;;;;;;;;;;5156418;27;20038;-67
2024/03/11 04:14:24;;;;;;;0.00;0.00;;;;;;;;;;5152213;27;20479;-67
2024/03/11 04:16:50;;;;;;;0.00;0.00;;;;;;;;;;5153811;27;20028;-67
2024/03/11 04:19:18;;;;;;;0.00;0.00;;;;;;;;;;5143929;27;20434;-67
2024/03/11 04:21:44;;;;;;;0.43;0.43;;;;;;;;;;5137547;27;20056;-67
2024/03/11 04:24:11;;;;;;;0.00;0.00;;;;;;;;;;5155059;27;20018;-67
2024/03/11 04:26:38;;;;;;;0.00;0.00;;;;;;;;;;5139847;27;20050;-67
2024/03/11 04:29:05;;;;;;;0.00;0.00;;;;;;;;;;5155368;27;20593;-67
2024/03/11 04:31:35;;;;;;;0.00;0.00;;;;;;;;;;5154673;27;20110;-67
2024/03/11 04:34:01;;;;;;;0.00;0.00;;;;;;;;;;5152073;27;20168;-67
2024/03/11 04:36:37;;;;;;;0.00;0.00;;;;;;;;;;5154720;27;20460;-67
2024/03/11 04:39:05;;;;;;;0.00;0.00;;;;;;;;;;5142633;27;20489;-67
2024/03/11 04:41:35;;;;;;;0.00;0.00;;;;;;;;;;5145289;27;20440;-67
2024/03/11 04:44:01;;;;;;;0.00;0.00;;;;;;;;;;5122272;27;20076;-68
2024/03/11 04:46:27;;;;;;;0.00;0.00;;;;;;;;;;5152960;27;20491;-68
2024/03/11 04:48:53;;;;;;;0.00;0.00;;;;;;;;;;5155466;27;20022;-68
2024/03/11 04:51:20;;;;;;;0.00;0.00;;;;;;;;;;5144670;27;20087;-68
2024/03/11 04:53:48;;;;;;;0.00;0.00;;;;;;;;;;5153929;27;20018;-68
2024/03/11 04:56:15;;;;;;;0.00;0.00;;;;;;;;;;5144856;27;20372;-68
2024/03/11 04:58:41;;;;;;;0.00;0.00;;;;;;;;;;5156220;27;20027;-68
2024/03/11 05:01:08;;;;;;;0.00;0.00;;;;;;;;;;5148729;27;20107;-68
2024/03/11 05:03:34;;;;;;;0.00;0.00;;;;;;;;;;5155491;27;20023;-68
2024/03/11 05:06:00;;;;;;;0.00;0.00;;;;;;;;;;5155585;27;20057;-68
2024/03/11 05:08:26;;;;;;;0.00;0.00;;;;;;;;;;5128527;27;20066;-68
2024/03/11 05:10:52;;;;;;;0.00;0.00;;;;;;;;;;5129600;27;20060;-68
2024/03/11 05:13:18;;;;;;;0.10;0.10;;;;;;;;;;5155227;27;20478;-68
2024/03/11 05:15:47;;;;;;;0.00;0.00;;;;;;;;;;5154821;27;20147;-68
2024/03/11 05:21:17;;;;;;;0.00;0.00;;;;;;;;;;5151732;27;20555;-68
2024/03/11 05:23:43;;;;;;;0.00;0.00;;;;;;;;;;5145625;27;20011;-67
2024/03/11 05:26:09;;;;;;;0.00;0.00;;;;;;;;;;5150079;27;20023;-67
2024/03/11 05:28:35;;;;;;;0.00;0.00;;;;;;;;;;5136390;27;20412;-67
2024/03/11 05:31:01;;;;;;;0.00;0.00;;;;;;;;;;5154484;27;20079;-68
2024/03/11 05:36:31;;;;;;;0.00;0.00;;;;;;;;;;5153263;27;20052;-68
2024/03/11 05:38:57;;;;;;;0.00;0.00;;;;;;;;;;5153922;27;20035;-68
2024/03/11 05:41:23;;;;;;;0.03;0.03;;;;;;;;;;5154943;27;20095;-68
2024/03/11 05:43:49;;;;;;;0.00;0.00;;;;;;;;;;5147284;27;20030;-68
2024/03/11 05:46:15;;;;;;;0.00;0.00;;;;;;;;;;5150688;27;20034;-68
2024/03/11 05:48:41;;;;;;;0.00;0.00;;;;;;;;;;5143289;27;20023;-67
2024/03/11 05:51:08;;;;;;;0.00;0.00;;;;;;;;;;5133492;27;20037;-67
2024/03/11 05:53:37;;;;;;;0.00;0.00;;;;;;;;;;5153814;27;20067;-67
2024/03/11 05:56:03;;;;;;;0.00;0.00;;;;;;;;;;5148774;27;20030;-67
2024/03/11 05:58:29;;;;;;;0.00;0.00;;;;;;;;;;5154844;27;20098;-68
2024/03/11 06:00:58;;;;;;;0.00;0.00;;;;;;;;;;5135299;27;20454;-68
2024/03/11 06:03:24;;;;;;;0.00;0.00;;;;;;;;;;5152763;27;20023;-68
2024/03/11 06:05:51;;;;;;;0.00;0.00;;;;;;;;;;5150898;27;20429;-67
2024/03/11 06:08:18;;;;;;;0.00;0.00;;;;;;;;;;5121992;27;20073;-67
2024/03/11 06:10:44;;;;;;;0.00;0.00;;;;;;;;;;5127551;27;20023;-68
2024/03/11 06:13:10;;;;;;;0.00;0.00;;;;;;;;;;5143472;27;20034;-68
2024/03/11 06:15:37;;;;;;;0.00;0.00;;;;;;;;;;5152973;27;20431;-68
2024/03/11 06:18:03;;;;;;;0.00;0.00;;;;;;;;;;5133740;27;20031;-68
2024/03/11 06:20:29;;;;;;;0.00;0.00;;;;;;;;;;5151911;27;20111;-68
2024/03/11 06:22:55;;;;;;;0.00;0.00;;;;;;;;;;5139755;27;20034;-68
2024/03/11 06:25:21;;;;;;;0.00;0.00;;;;;;;;;;5139702;27;20520;-68
2024/03/11 06:27:49;;;;;;;0.00;0.00;;;;;;;;;;5132178;27;20035;-69
2024/03/11 06:30:16;;;;;;;0.00;0.00;;;;;;;;;;5154149;27;20015;-69
2024/03/11 06:32:44;;;;;;;0.00;0.00;;;;;;;;;;5149294;27;20042;-69
2024/03/11 06:35:13;;;;;;;0.00;0.00;;;;;;;;;;5153280;27;20019;-69
2024/03/11 06:37:39;;;;;;;0.00;0.00;;;;;;;;;;5132936;27;20015;-68
2024/03/11 06:40:07;;;;;;;0.00;0.00;;;;;;;;;;5157444;27;20015;-68
2024/03/11 06:45:36;;;;;;;0.00;0.00;;;;;;;;;;5156677;27;20131;-68
2024/03/11 06:48:06;;;;;;;0.00;0.00;;;;;;;;;;5152121;27;20123;-68
2024/03/11 06:50:32;;;;;;;0.00;0.00;;;;;;;;;;5156984;27;20023;-67
2024/03/11 06:52:58;;;;;;;0.10;0.10;;;;;;;;;;5158009;27;20106;-66
2024/03/11 06:55:24;;;;;;;0.00;0.00;;;;;;;;;;5155901;27;20018;-67
2024/03/11 06:57:50;;;;;;;0.45;0.45;;;;;;;;;;5157705;27;20092;-66
2024/03/11 07:00:19;;;;;;;0.00;0.00;;;;;;;;;;5148960;27;20034;-68
2024/03/11 07:02:52;;;;;;;0.00;0.00;;;;;;;;;;5138706;27;20022;-67
2024/03/11 07:05:18;;;;;;;0.00;0.00;;;;;;;;;;5155378;27;20073;-66
2024/03/11 07:07:45;;;;;;;0.00;0.00;;;;;;;;;;5157431;27;20463;-66
2024/03/11 07:10:12;;;;;;;0.00;0.00;;;;;;;;;;5148271;27;20551;-67
2024/03/11 07:12:42;;;;;;;0.00;0.00;;;;;;;;;;5156019;27;20105;-67
2024/03/11 07:15:09;;;;;;;0.00;0.00;;;;;;;;;;5157232;27;20025;-67
2024/03/11 07:17:35;;;;;;;0.00;0.00;;;;;;;;;;5141376;27;20031;-67
2024/03/11 07:20:07;;;;;;;0.00;0.00;;;;;;;;;;5148860;27;20015;-67
2024/03/11 07:22:33;;;;;;;0.00;0.00;;;;;;;;;;5145441;27;20060;-67
2024/03/11 07:25:36;;;;;;;0.00;0.00;;;;;;;;;;5149989;27;20026;-67
2024/03/11 07:28:04;;;;;;;0.00;0.00;;;;;;;;;;5145485;27;20035;-67
2024/03/11 07:30:30;;;;;;;0.00;0.00;;;;;;;;;;5136976;27;20459;-68
2024/03/11 07:33:04;;;;;;;0.00;0.00;;;;;;;;;;5156708;27;20066;-68
2024/03/11 07:35:32;;;;;;;0.00;0.00;;;;;;;;;;5154410;27;20111;-67
2024/03/11 07:37:58;;;;;;;0.00;0.00;;;;;;;;;;5144969;27;20027;-67
2024/03/11 07:40:30;;;;;;;0.00;0.00;;;;;;;;;;5146845;27;20034;-67
2024/03/11 07:42:57;;;;;;;0.13;0.13;;;;;;;;;;5154417;27;20027;-67
2024/03/11 07:45:23;;;;;;;0.00;0.00;;;;;;;;;;5130200;27;20385;-72
2024/03/11 07:47:49;;;;;;;0.17;0.17;;;;;;;;;;5154771;27;20019;-68
2024/03/11 07:50:15;;;;;;;0.00;0.00;;;;;;;;;;5140330;27;20412;-71
2024/03/11 07:52:42;;;;;;;0.10;0.10;;;;;;;;;;5140823;27;20035;-66
2024/03/11 07:55:08;;;;;;;0.00;0.00;;;;;;;;;;5140024;27;20156;-62
2024/03/11 07:57:37;;;;;;;0.10;0.10;;;;;;;;;;5148366;27;20189;-60
2024/03/11 08:00:05;;;;;;;0.00;0.00;;;;;;;;;;5146898;27;20019;-61
2024/03/11 08:02:33;;;;;;;0.00;0.00;;;;;;;;;;5134779;27;20105;-61
2024/03/11 08:05:01;;;;;;;0.00;0.00;;;;;;;;;;5147632;27;20414;-61
2024/03/11 08:07:30;;;;;;;0.00;0.00;;;;;;;;;;5142038;27;20091;-60
2024/03/11 08:09:56;;;;;;;0.10;0.10;;;;;;;;;;5153725;27;20493;-64
2024/03/11 08:12:22;;;;;;;0.00;0.00;;;;;;;;;;5154642;27;20117;-63
2024/03/11 08:14:48;;;;;;;0.00;0.00;;;;;;;;;;5142973;27;20022;-63
2024/03/11 08:17:15;;;;;;;0.00;0.00;;;;;;;;;;5146966;27;20470;-57
2024/03/11 08:19:43;;;;;;;0.00;0.00;;;;;;;;;;5150969;27;20033;-57
2024/03/11 08:22:09;;;;;;;0.00;0.00;;;;;;;;;;5123838;27;20054;-64
2024/03/11 08:24:36;;;;;;;0.00;0.00;;;;;;;;;;5147246;27;20015;-64
2024/03/11 08:27:04;;;;;;;0.00;0.00;;;;;;;;;;5150928;27;20490;-62
2024/03/11 08:29:31;;;;;;;0.00;0.00;;;;;;;;;;5154368;27;20015;-76
2024/03/11 08:31:57;;;;;;;0.00;0.00;;;;;;;;;;5152593;27;20019;-71
2024/03/11 08:34:23;;;;;;;0.00;0.00;;;;;;;;;;5151056;27;20026;-69
2024/03/11 08:36:51;;;;;;;0.00;0.00;;;;;;;;;;5150139;27;20094;-70
2024/03/11 08:39:21;;;;;;;0.00;0.00;;;;;;;;;;5147379;27;20030;-60
2024/03/11 08:41:47;;;;;;;0.00;0.00;;;;;;;;;;5124735;27;20019;-63
2024/03/11 08:44:14;;;;;;;0.00;0.00;;;;;;;;;;5141509;27;20030;-68
2024/03/11 08:46:43;;;;;;;0.00;0.00;;;;;;;;;;5146926;27;20027;-61
2024/03/11 08:49:11;;;;;;;0.00;0.00;;;;;;;;;;5129607;27;20361;-60
2024/03/11 08:51:40;;;;;;;0.00;0.00;;;;;;;;;;5147643;27;20026;-61
2024/03/11 08:54:06;;;;;;;0.00;0.00;;;;;;;;;;5140600;27;20075;-62
2024/03/11 08:56:32;;;;;;;0.38;0.10;;;;;;;;;;5152624;27;20053;-62
2024/03/11 08:59:00;;;;;;;0.00;0.00;;;;;;;;;;5143550;27;20027;-61
2024/03/11 09:01:26;;;;;;;0.00;0.00;;;;;;;;;;5121687;27;20130;-62
2024/03/11 09:03:53;;;;;;;0.00;0.00;;;;;;;;;;5125381;27;20027;-62
2024/03/11 09:06:19;;;;;;;0.00;0.00;;;;;;;;;;5142158;27;20027;-61
2024/03/11 09:08:48;;;;;;;0.32;0.32;;;;;;;;;;5154595;27;20030;-62
2024/03/11 09:11:15;;;;;;;0.00;0.00;;;;;;;;;;5136898;27;20018;-62
2024/03/11 09:13:44;;;;;;;0.30;0.30;;;;;;;;;;5155423;27;20495;-68
2024/03/11 09:16:11;;;;;;;0.00;0.00;;;;;;;;;;5155425;27;20046;-70
2024/03/11 09:18:39;;;;;;;0.00;0.00;;;;;;;;;;5155460;27;20018;-72
2024/03/11 09:21:05;;;;;;;0.05;0.05;;;;;;;;;;5155765;27;20027;-66
2024/03/11 09:26:35;;;;;;;0.00;0.00;;;;;;;;;;5150256;27;20506;-65
2024/03/11 09:29:01;;;;;;;0.00;0.00;;;;;;;;;;5136009;27;20015;-64
2024/03/11 09:31:29;;;;;;;2.83;1.08;;;;;;;;;;5154751;27;20325;-66
2024/03/11 09:33:55;;;;;;;1.55;1.33;;;;;;;;;;5152669;27;20107;-66
2024/03/11 09:36:24;;;;;;;0.57;0.57;;;;;;;;;;5154952;27;20019;-63
2024/03/11 09:38:52;;;;;;;0.00;0.00;;;;;;;;;;5154575;27;20060;-68
2024/03/11 09:41:19;;;;;;;0.00;0.00;;;;;;;;;;5154536;27;20023;-70
2024/03/11 09:43:48;;;;;;;0.10;0.10;;;;;;;;;;5155141;27;20029;-63
2024/03/11 09:46:20;;;;;;;0.00;0.00;;;;;;;;;;5135912;27;20122;-68
2024/03/11 09:48:51;;;;;;;0.00;0.00;;;;;;;;;;5136210;27;20039;-63
2024/03/11 09:51:19;;;;;;;0.47;0.47;;;;;;;;;;5135882;27;20379;-66
2024/03/11 09:53:46;;;;;;;1.08;0.98;;;;;;;;;;5154470;27;20058;-63
2024/03/11 09:59:26;;;;;;;0.40;0.40;;;;;;;;;;5153220;27;20033;-65
2024/03/11 10:01:53;;;;;;;0.40;0.40;;;;;;;;;;5153476;27;20026;-63
2024/03/11 10:04:21;;;;;;;0.17;0.17;;;;;;;;;;5154774;27;20019;-65
2024/03/11 10:07:07;;;;;;;0.00;0.00;;;;;;;;;;5154235;27;20113;-65
2024/03/11 10:09:46;;;;;;;0.10;0.10;;;;;;;;;;5154575;27;20027;-66
2024/03/11 10:12:15;;;;;;;0.00;0.00;;;;;;;;;;5132895;27;20083;-70
2024/03/11 10:14:42;;;;;;;0.00;0.00;;;;;;;;;;5154736;27;20045;-57
2024/03/11 10:17:19;;;;;;;0.00;0.00;;;;;;;;;;5135401;27;20432;-62
2024/03/11 10:19:47;;;;;;;0.50;0.50;;;;;;;;;;5135235;27;20157;-62
2024/03/11 10:22:21;;;;;;;0.00;0.00;;;;;;;;;;5154058;27;20027;-62
2024/03/11 10:24:47;;;;;;;0.00;0.00;;;;;;;;;;5154008;27;20014;-62
2024/03/11 10:27:43;;;;;;;0.00;0.00;;;;;;;;;;5154036;27;20033;-62
2024/03/11 10:30:22;;;;;;;0.00;0.00;;;;;;;;;;5140460;27;20034;-62
2024/03/11 10:32:55;;;;;;;0.00;0.00;;;;;;;;;;5135103;27;20543;-62
2024/03/11 10:35:21;;;;;;;0.00;0.00;;;;;;;;;;5135498;27;20023;-62
2024/03/11 10:37:50;;;;;;;0.43;0.43;;;;;;;;;;5135279;27;20084;-62
2024/03/11 10:40:19;;;;;;;0.00;0.00;;;;;;;;;;5144913;27;20019;-62
2024/03/11 10:42:53;;;;;;;0.00;0.00;;;;;;;;;;5153900;27;20791;-62
2024/03/11 10:45:32;;;;;;;0.00;0.00;;;;;;;;;;5153750;27;20349;-62
2024/03/11 10:48:09;;;;;;;0.00;0.00;;;;;;;;;;5153570;27;20384;-62
2024/03/11 10:50:35;;;;;;;0.00;0.00;;;;;;;;;;5153903;27;20026;-62
2024/03/11 10:53:03;;;;;;;0.00;0.00;;;;;;;;;;5153628;27;20018;-62
2024/03/11 10:55:32;;;;;;;0.10;0.10;;;;;;;;;;5135137;27;20053;-62
2024/03/11 10:58:02;;;;;;;0.15;0.15;;;;;;;;;;5151016;27;20508;-62
2024/03/11 11:00:35;;;;;;;0.93;0.80;;;;;;;;;;5123890;27;20045;-62
2024/03/11 11:03:12;;;;;;;0.00;0.00;;;;;;;;;;5153584;27;20384;-62
2024/03/11 11:05:47;;;;;;;1.08;0.47;;;;;;;;;;5135151;27;20019;-62
2024/03/11 11:08:13;;;;;;;0.00;0.00;;;;;;;;;;5153584;27;20035;-62
2024/03/11 11:10:45;;;;;;;0.30;0.30;;;;;;;;;;5153723;27;20022;-62
2024/03/11 11:13:13;;;;;;;0.13;0.13;;;;;;;;;;5153620;27;20478;-62
2024/03/11 11:15:41;;;;;;;0.00;0.00;;;;;;;;;;5153304;27;20511;-63
2024/03/11 11:18:12;;;;;;;0.00;0.00;;;;;;;;;;5153412;27;20464;-62
2024/03/11 11:20:39;;;;;;;0.00;0.00;;;;;;;;;;5153431;27;20015;-62
2024/03/11 11:23:05;;;;;;;0.00;0.00;;;;;;;;;;5153523;27;20026;-63
2024/03/11 11:25:44;;;;;;;0.00;0.00;;;;;;;;;;5156609;27;20017;-62
2024/03/11 11:28:24;;;;;;;0.00;0.00;;;;;;;;;;5138808;27;20421;-62
2024/03/11 11:30:53;;;;;;;0.95;0.90;;;;;;;;;;5157419;27;20064;-62
2024/03/11 11:33:38;;;;;;;0.00;0.00;;;;;;;;;;5138586;27;20090;-62
2024/03/11 11:36:04;;;;;;;;;;;;;;;;;;5150950;27;20034;-62
2024/03/11 11:38:34;;;;;;;0.00;0.00;;;;;;;;;;5156873;27;19966;-62
2024/03/11 11:41:03;;;;;;;0.00;0.00;;;;;;;;;;5147427;27;20072;-61
2024/03/11 11:43:45;;;;;;;0.00;0.00;;;;;;;;;;5152852;27;20118;-61
2024/03/11 11:46:11;;;;;;;0.10;0.10;;;;;;;;;;5142773;27;20039;-61
2024/03/11 11:48:37;;;;;;;0.00;0.00;;;;;;;;;;5156902;27;20031;-62
2024/03/11 11:51:04;;;;;;;0.00;0.00;;;;;;;;;;5156625;27;20090;-61
2024/03/11 11:53:32;;;;;;;0.00;0.00;;;;;;;;;;5156722;27;20379;-61
2024/03/11 11:55:58;;;;;;;0.05;0.05;;;;;;;;;;5156520;27;20019;-61
2024/03/11 11:58:25;;;;;;;0.00;0.00;;;;;;;;;;5156659;27;20019;-61
2024/03/11 12:00:58;;;;;;;0.00;0.00;;;;;;;;;;5156390;27;20419;-61
2024/03/11 12:03:35;;;;;;;0.00;0.00;;;;;;;;;;5156569;27;20026;-62
2024/03/11 12:06:02;;;;;;;0.00;0.00;;;;;;;;;;5157060;27;20083;-62
2024/03/11 12:08:30;;;;;;;0.00;0.00;;;;;;;;;;5141753;27;20480;-61
2024/03/11 12:11:08;;;;;;;0.00;0.00;;;;;;;;;;5156729;27;20023;-61
2024/03/11 12:13:34;;;;;;;0.00;0.00;;;;;;;;;;5156730;27;20357;-62
2024/03/11 12:16:08;;;;;;;0.00;0.00;;;;;;;;;;5156468;27;20343;-62
2024/03/11 12:18:34;;;;;;;0.00;0.00;;;;;;;;;;5137702;27;20110;-63
2024/03/11 12:21:08;;;;;;;0.00;0.00;;;;;;;;;;5156755;27;20030;-62
2024/03/11 12:23:35;;;;;;;0.00;0.00;;;;;;;;;;5156238;27;20397;-62
2024/03/11 12:26:02;;;;;;;0.00;0.00;;;;;;;;;;5156665;27;20034;-63
2024/03/11 12:28:28;;;;;;;0.60;0.60;;;;;;;;;;5155941;27;20529;-62
2024/03/11 12:30:54;;;;;;;0.00;0.00;;;;;;;;;;5137513;27;20054;-62
2024/03/11 12:33:22;;;;;;;0.03;0.03;;;;;;;;;;5155943;27;20015;-63
2024/03/11 12:35:50;;;;;;;0.00;0.00;;;;;;;;;;5154727;27;20011;-62
2024/03/11 12:38:16;;;;;;;0.00;0.00;;;;;;;;;;5137173;27;20491;-62
2024/03/11 12:40:46;;;;;;;0.10;0.10;;;;;;;;;;5155443;27;20023;-62
2024/03/11 12:43:19;;;;;;;0.00;0.00;;;;;;;;;;5155665;27;20079;-63
2024/03/11 12:45:47;;;;;;;0.20;0.20;;;;;;;;;;5154270;27;20759;-62
2024/03/11 12:48:14;;;;;;;0.00;0.00;;;;;;;;;;5136839;27;20133;-63
2024/03/11 12:50:40;;;;;;;1.10;0.65;;;;;;;;;;5154716;27;20025;-63
2024/03/11 12:53:07;;;;;;;1.38;0.80;;;;;;;;;;5155456;27;20480;-62
2024/03/11 12:55:33;;;;;;;0.00;0.00;;;;;;;;;;5155178;27;20491;-63
2024/03/11 12:58:12;;;;;;;0.05;0.05;;;;;;;;;;5136622;27;20073;-63
2024/03/11 13:00:40;;;;;;;0.00;0.00;;;;;;;;;;5155435;27;20015;-67
2024/03/11 13:03:17;;;;;;;0.00;0.00;;;;;;;;;;5155376;27;20143;-73
2024/03/11 13:06:12;;;;;;;0.00;0.00;;;;;;;;;;5152207;27;20507;-72
2024/03/11 13:08:43;;;;;;;0.00;0.00;;;;;;;;;;5128645;27;20042;-62
2024/03/11 13:11:09;;;;;;;0.00;0.00;;;;;;;;;;5131990;27;20079;-65
2024/03/11 13:13:39;;;;;;;0.00;0.00;;;;;;;;;;5154193;27;20562;-65
2024/03/11 13:16:09;;;;;;;0.00;0.00;;;;;;;;;;5134686;27;20451;-61
2024/03/11 13:18:45;;;;;;;0.00;0.00;;;;;;;;;;5155372;27;20097;-76
2024/03/11 13:21:11;;;;;;;0.00;0.00;;;;;;;;;;5154569;27;20027;-60
2024/03/11 13:23:38;;;;;;;0.00;0.00;;;;;;;;;;5154311;27;20018;-63
2024/03/11 13:26:09;;;;;;;0.00;0.00;;;;;;;;;;5155727;27;20029;-56
2024/03/11 13:28:38;;;;;;;0.00;0.00;;;;;;;;;;5155294;27;20027;-61
2024/03/11 13:31:07;;;;;;;0.00;0.00;;;;;;;;;;5154385;27;20046;-49
2024/03/11 13:33:41;;;;;;;0.00;0.00;;;;;;;;;;5154782;27;20025;-51
2024/03/11 13:36:08;;;;;;;0.00;0.00;;;;;;;;;;5154876;27;20475;-60
2024/03/11 13:38:34;;;;;;;0.00;0.00;;;;;;;;;;5154912;27;20019;-62
2024/03/11 13:41:00;;;;;;;0.00;0.00;;;;;;;;;;5154581;27;20094;-57
2024/03/11 13:43:27;;;;;;;0.00;0.00;;;;;;;;;;5135360;27;20025;-61
2024/03/11 13:45:54;;;;;;;0.00;0.00;;;;;;;;;;5133536;27;20060;-68
2024/03/11 13:48:24;;;;;;;0.13;0.10;;;;;;;;;;5147811;27;20107;-69
2024/03/11 13:50:51;;;;;;;0.00;0.00;;;;;;;;;;5154322;27;20023;-70
2024/03/11 13:53:17;;;;;;;0.00;0.00;;;;;;;;;;5147509;27;20019;-67
2024/03/11 13:55:49;;;;;;;0.00;0.00;;;;;;;;;;5152051;27;20054;-65
2024/03/11 13:58:15;;;;;;;0.00;0.00;;;;;;;;;;5135522;27;20353;-57
2024/03/11 14:00:41;;;;;;;0.00;0.00;;;;;;;;;;5153627;27;20044;-62
2024/03/11 14:03:10;;;;;;;0.20;0.20;;;;;;;;;;5154365;27;20026;-73
2024/03/11 14:05:36;;;;;;;0.00;0.00;;;;;;;;;;5154093;27;20487;-72
2024/03/11 14:08:03;;;;;;;0.00;0.00;;;;;;;;;;5154359;27;20046;-73
2024/03/11 14:11:06;;;;;;;0.00;0.00;;;;;;;;;;5145998;27;20034;-74
2024/03/11 14:13:33;;;;;;;0.00;0.00;;;;;;;;;;5143671;27;20027;-75
2024/03/11 14:15:59;;;;;;;0.00;0.00;;;;;;;;;;5143874;27;20375;-63
2024/03/11 14:18:26;;;;;;;0.00;0.00;;;;;;;;;;5135494;27;20027;-60
2024/03/11 14:20:51;;;;;;;0.00;0.00;;;;;;;;;;5145312;27;20011;-60
2024/03/11 14:23:18;;;;;;;0.00;0.00;;;;;;;;;;5150974;27;20046;-60
2024/03/11 14:25:47;;;;;;;0.00;0.00;;;;;;;;;;5146846;27;20441;-60
2024/03/11 14:28:14;;;;;;;0.00;0.00;;;;;;;;;;5141103;27;20035;-60
2024/03/11 14:30:41;;;;;;;0.03;0.03;;;;;;;;;;5150670;27;20031;-69
2024/03/11 14:33:07;;;;;;;0.00;0.00;;;;;;;;;;5147886;27;20110;-75
2024/03/11 14:35:33;;;;;;;0.38;0.38;;;;;;;;;;5154195;27;20443;-68
2024/03/11 14:38:00;;;;;;;0.00;0.00;;;;;;;;;;5135315;27;20031;-68
2024/03/11 14:40:29;;;;;;;0.00;0.00;;;;;;;;;;5152573;27;20019;-66
2024/03/11 14:43:08;;;;;;;0.00;0.00;;;;;;;;;;5153251;27;20027;-68
2024/03/11 14:45:34;;;;;;;0.00;0.00;;;;;;;;;;5132069;27;20025;-68
2024/03/11 14:48:01;;;;;;;0.00;0.00;;;;;;;;;;5144191;27;20052;-65
2024/03/11 14:50:36;;;;;;;0.00;0.00;;;;;;;;;;5132933;27;20030;-64
2024/03/11 14:53:06;;;;;;;;;;;;;;;;;;5153657;27;20102;-60
2024/03/11 14:55:36;;;;;;;0.00;0.00;;;;;;;;;;5135006;27;19903;-59
2024/03/11 14:58:03;;;;;;;0.00;0.00;;;;;;;;;;5153120;27;20043;-59
2024/03/11 15:00:35;;;;;;;0.00;0.00;;;;;;;;;;5122767;27;20027;-62
2024/03/11 15:03:02;;;;;;;2.40;1.75;;;;;;;;;;5156204;27;20026;-66
2024/03/11 15:05:29;;;;;;;7.07;4.28;;;;;;;;;;5151316;27;20503;-75
2024/03/11 15:07:59;;;;;;;6.05;3.53;;;;;;;;;;5154873;27;20039;-73
2024/03/11 15:10:32;;;;;;;5.93;3.25;;;;;;;;;;5157370;27;20400;-74
2024/03/11 15:12:59;;;;;;;5.35;2.65;;;;;;;;;;5156055;27;20027;-72
2024/03/11 15:15:29;;;;;;;5.22;2.75;;;;;;;;;;5146675;27;20023;-67